Time;durP1;ratioP1;P1;durP2;ratioP2;P2;SDS_P1;SDS_P2;PMS_P1;PMS_P2;Temp;Humidity;BMP_temperature;BMP_pressure;BME280_temperature;BME280_humidity;BME280_pressure;Samples;Min_cycle;Max_cycle;Signal;HPM_P1;HPM_P2
2021/12/14 00:01:24;;;;;;;18.17;12.20;;;8.60;99.90;;;;;;6301945;22;20015;-70
2021/12/14 00:03:55;;;;;;;18.42;12.40;;;8.60;99.90;;;;;;6299151;22;20015;-71
2021/12/14 00:06:23;;;;;;;19.90;12.63;;;8.60;99.90;;;;;;6274149;22;20019;-70
2021/12/14 00:08:55;;;;;;;19.80;12.93;;;8.60;99.90;;;;;;6301863;22;20027;-70
2021/12/14 00:16:48;;;;;;;23.92;14.18;;;8.60;99.90;;;;;;6303428;22;20027;-70
2021/12/14 00:19:14;;;;;;;19.35;13.10;;;8.60;99.90;;;;;;6301245;22;20339;-70
2021/12/14 00:21:43;;;;;;;20.73;13.13;;;8.50;99.90;;;;;;6304473;22;20090;-70
2021/12/14 00:24:14;;;;;;;25.13;15.98;;;8.50;99.90;;;;;;6302706;22;20012;-70
2021/12/14 00:26:54;;;;;;;20.75;13.05;;;8.50;99.90;;;;;;6303671;22;20069;-71
2021/12/14 00:29:27;;;;;;;20.95;12.80;;;8.50;99.90;;;;;;6302863;22;20057;-70
2021/12/14 00:31:55;;;;;;;19.58;13.43;;;8.50;99.90;;;;;;6302474;22;20057;-71
2021/12/14 00:34:33;;;;;;;20.05;13.02;;;8.40;99.90;;;;;;6300695;22;20062;-71
2021/12/14 00:36:58;;;;;;;21.90;13.43;;;8.50;99.90;;;;;;6304289;22;20054;-71
2021/12/14 00:39:24;;;;;;;17.67;12.00;;;8.40;99.90;;;;;;6303240;22;20011;-71
2021/12/14 00:41:50;;;;;;;21.65;14.05;;;8.40;99.90;;;;;;6303283;22;20026;-71
2021/12/14 00:44:15;;;;;;;21.52;14.15;;;8.40;99.90;;;;;;6303200;22;20366;-71
2021/12/14 00:46:41;;;;;;;22.13;14.73;;;8.40;99.90;;;;;;6301000;22;20011;-71
2021/12/14 00:49:11;;;;;;;22.20;14.90;;;8.40;99.90;;;;;;6272934;22;20026;-71
2021/12/14 00:51:37;;;;;;;25.10;16.42;;;8.40;99.90;;;;;;6303502;22;20031;-72
2021/12/14 00:54:06;;;;;;;19.83;13.52;;;8.40;99.90;;;;;;6301740;22;20057;-70
2021/12/14 00:56:34;;;;;;;19.92;14.13;;;8.40;99.90;;;;;;6303584;22;20315;-71
2021/12/14 00:59:02;;;;;;;26.25;15.98;;;8.40;99.90;;;;;;6301017;22;20018;-71
2021/12/14 01:01:33;;;;;;;21.40;15.00;;;8.40;99.90;;;;;;6302213;22;20535;-71
2021/12/14 01:04:07;;;;;;;23.33;15.23;;;8.40;99.90;;;;;;6300791;22;20447;-70
2021/12/14 01:06:36;;;;;;;23.77;16.05;;;8.40;99.90;;;;;;6302821;22;20019;-71
2021/12/14 01:09:05;;;;;;;23.27;15.57;;;8.40;99.90;;;;;;6302032;22;20026;-71
2021/12/14 01:11:41;;;;;;;24.60;15.35;;;8.30;99.90;;;;;;6302762;22;20054;-71
2021/12/14 01:14:27;;;;;;;22.88;15.57;;;8.30;99.90;;;;;;6274894;22;20098;-71
2021/12/14 01:17:09;;;;;;;23.98;14.95;;;8.30;99.90;;;;;;6271900;22;20026;-71
2021/12/14 01:19:37;;;;;;;27.98;15.55;;;8.40;99.90;;;;;;6272088;22;20027;-70
2021/12/14 01:22:24;;;;;;;23.55;16.23;;;8.40;99.90;;;;;;6274693;22;20019;-70
2021/12/14 01:25:04;;;;;;;25.52;15.27;;;8.40;99.90;;;;;;6274247;22;20025;-71
2021/12/14 01:27:38;;;;;;;21.15;14.00;;;8.40;99.90;;;;;;6274151;22;20016;-70
2021/12/14 01:30:14;;;;;;;24.58;15.88;;;8.40;99.90;;;;;;6272141;22;20025;-70
2021/12/14 01:32:44;;;;;;;30.98;13.55;;;8.30;99.90;;;;;;6271721;22;20086;-71
2021/12/14 01:35:13;;;;;;;25.67;15.85;;;8.40;99.90;;;;;;6300997;22;20023;-71
2021/12/14 01:37:47;;;;;;;24.23;15.52;;;8.40;99.90;;;;;;6271981;22;20106;-71
2021/12/14 01:40:29;;;;;;;;;;;8.40;99.90;;;;;;6301271;22;20089;-71
2021/12/14 01:42:57;;;;;;;29.00;15.75;;;8.40;99.90;;;;;;6298907;22;19926;-71
2021/12/14 01:45:24;;;;;;;22.95;14.50;;;8.40;99.90;;;;;;6300537;22;20015;-71
2021/12/14 01:47:54;;;;;;;24.10;14.73;;;8.40;99.90;;;;;;6299791;22;20019;-71
2021/12/14 01:50:28;;;;;;;26.10;17.42;;;8.30;99.90;;;;;;6301557;22;20011;-70
2021/12/14 01:52:56;;;;;;;27.55;16.63;;;8.30;99.90;;;;;;6301819;22;20451;-70
2021/12/14 01:55:25;;;;;;;28.58;17.48;;;8.30;99.90;;;;;;6301700;22;20011;-70
2021/12/14 01:57:55;;;;;;;29.27;18.17;;;8.30;99.90;;;;;;6299597;22;20080;-71
2021/12/14 02:00:47;;;;;;;26.08;16.88;;;8.30;99.90;;;;;;6300832;22;20016;-70
2021/12/14 02:03:15;;;;;;;25.05;17.35;;;8.30;99.90;;;;;;6271441;22;20395;-70
2021/12/14 02:05:45;;;;;;;25.73;15.93;;;8.30;99.90;;;;;;6272980;22;20347;-71
2021/12/14 02:08:26;;;;;;;26.17;16.88;;;8.30;99.90;;;;;;6273239;22;20030;-70
2021/12/14 02:10:55;;;;;;;22.33;14.98;;;8.30;99.90;;;;;;6272940;22;20086;-71
2021/12/14 02:13:31;;;;;;;23.55;15.57;;;8.30;99.90;;;;;;6300709;22;20440;-71
2021/12/14 02:15:58;;;;;;;28.55;16.70;;;8.30;99.90;;;;;;6273041;22;20072;-72
2021/12/14 02:18:27;;;;;;;26.95;17.48;;;8.30;99.90;;;;;;6272154;22;20054;-70
2021/12/14 02:21:06;;;;;;;25.95;14.93;;;8.30;99.90;;;;;;6273836;22;20346;-71
2021/12/14 02:23:35;;;;;;;25.98;15.98;;;8.30;99.90;;;;;;6274305;22;20068;-71
2021/12/14 02:26:05;;;;;;;23.40;15.55;;;8.30;99.90;;;;;;6275096;22;20019;-71
2021/12/14 02:28:32;;;;;;;27.33;17.55;;;8.30;99.90;;;;;;6273296;22;20015;-71
2021/12/14 02:30:59;;;;;;;25.75;17.38;;;8.30;99.90;;;;;;6301394;22;20019;-71
2021/12/14 02:33:32;;;;;;;27.10;17.23;;;8.30;99.90;;;;;;6300271;22;20021;-71
2021/12/14 02:36:00;;;;;;;27.08;17.90;;;8.30;99.90;;;;;;6302280;22;20409;-71
2021/12/14 02:38:26;;;;;;;27.60;17.33;;;8.30;99.90;;;;;;6301338;22;20030;-71
2021/12/14 02:41:05;;;;;;;27.20;18.15;;;8.30;99.90;;;;;;6301925;22;20015;-71
2021/12/14 02:43:45;;;;;;;25.38;17.25;;;8.30;99.90;;;;;;6302339;22;20038;-71
2021/12/14 02:46:37;;;;;;;29.38;17.95;;;8.30;99.90;;;;;;6300577;22;20462;-71
2021/12/14 02:49:07;;;;;;;29.52;18.83;;;8.30;99.90;;;;;;6273194;22;20072;-71
2021/12/14 02:51:43;;;;;;;30.30;20.63;;;8.30;99.90;;;;;;6275077;22;20253;-71
2021/12/14 02:54:17;;;;;;;29.48;18.27;;;8.30;99.90;;;;;;6273331;22;20023;-71
2021/12/14 02:56:46;;;;;;;29.50;18.88;;;8.30;99.90;;;;;;6302025;22;20094;-71
2021/12/14 02:59:22;;;;;;;34.53;19.80;;;8.30;99.90;;;;;;6274461;22;20332;-71
2021/12/14 03:01:50;;;;;;;28.75;18.90;;;8.30;99.90;;;;;;6272439;22;20015;-71
2021/12/14 03:04:16;;;;;;;30.75;17.35;;;8.30;99.90;;;;;;6301522;22;20026;-71
2021/12/14 03:06:49;;;;;;;31.50;19.05;;;8.30;99.90;;;;;;6275237;22;20016;-71
2021/12/14 03:09:35;;;;;;;29.55;18.15;;;8.30;99.90;;;;;;6273749;22;20038;-70
2021/12/14 03:12:12;;;;;;;32.33;19.80;;;8.30;99.90;;;;;;6273990;22;20023;-71
2021/12/14 03:14:46;;;;;;;28.98;17.88;;;8.30;99.90;;;;;;6272795;22;20018;-71
2021/12/14 03:17:12;;;;;;;30.73;17.67;;;8.30;99.90;;;;;;6273186;22;20069;-71
2021/12/14 03:19:37;;;;;;;33.33;20.48;;;8.30;99.90;;;;;;6273476;22;20019;-70
2021/12/14 03:22:37;;;;;;;32.95;19.80;;;8.40;99.90;;;;;;6247798;22;20019;-70
2021/12/14 03:25:05;;;;;;;32.28;18.20;;;8.30;99.90;;;;;;6273110;22;20023;-71
2021/12/14 03:27:31;;;;;;;24.13;13.70;;;8.40;99.90;;;;;;6274182;22;20455;-71
2021/12/14 03:29:57;;;;;;;29.40;18.08;;;8.30;99.90;;;;;;6273734;22;20071;-71
2021/12/14 03:32:23;;;;;;;29.35;20.20;;;8.40;99.90;;;;;;6273079;22;20054;-71
2021/12/14 03:34:49;;;;;;;31.70;19.77;;;8.30;99.90;;;;;;6273952;22;20023;-71
2021/12/14 03:37:20;;;;;;;27.52;15.60;;;8.30;99.90;;;;;;6273316;22;20016;-71
2021/12/14 03:39:50;;;;;;;33.38;20.45;;;8.30;99.90;;;;;;6274020;22;20015;-70
2021/12/14 03:42:25;;;;;;;31.25;19.27;;;8.30;99.90;;;;;;6273090;22;20071;-71
2021/12/14 03:44:54;;;;;;;29.05;16.85;;;8.30;99.90;;;;;;6274283;22;20050;-71
2021/12/14 03:47:49;;;;;;;33.90;21.13;;;8.30;99.90;;;;;;6275106;22;20124;-71
2021/12/14 03:50:25;;;;;;;32.03;18.35;;;8.20;99.90;;;;;;6259722;22;20015;-71
2021/12/14 03:52:51;;;;;;;35.70;22.02;;;8.30;99.90;;;;;;6276119;22;20359;-71
2021/12/14 03:55:25;;;;;;;36.28;23.05;;;8.20;99.90;;;;;;6275970;22;20019;-71
2021/12/14 03:57:51;;;;;;;38.88;23.77;;;8.20;99.90;;;;;;6275468;22;20015;-71
2021/12/14 04:00:30;;;;;;;39.05;22.10;;;8.20;99.90;;;;;;6276732;22;20200;-71
2021/12/14 04:03:02;;;;;;;40.03;22.52;;;8.20;99.90;;;;;;6274159;22;20344;-71
2021/12/14 04:05:28;;;;;;;39.00;24.15;;;8.20;99.90;;;;;;6275316;22;20065;-71
2021/12/14 04:07:53;;;;;;;34.42;20.30;;;8.20;99.90;;;;;;6276954;22;20015;-71
2021/12/14 04:10:23;;;;;;;31.48;19.60;;;8.20;99.90;;;;;;6275901;22;20022;-71
2021/12/14 04:12:50;;;;;;;42.63;25.00;;;8.20;99.90;;;;;;6274926;22;20448;-71
2021/12/14 04:15:16;;;;;;;37.10;21.17;;;8.30;99.90;;;;;;6275833;22;20037;-71
2021/12/14 04:17:41;;;;;;;39.00;23.40;;;8.30;99.90;;;;;;6273429;22;20457;-71
2021/12/14 04:20:14;;;;;;;39.70;22.83;;;8.20;99.90;;;;;;6275656;22;20021;-71
2021/12/14 04:22:42;;;;;;;42.10;23.00;;;8.30;99.90;;;;;;6276597;22;20020;-71
2021/12/14 04:25:09;;;;;;;41.83;24.10;;;8.30;99.90;;;;;;6275149;22;20061;-71
2021/12/14 04:27:35;;;;;;;41.53;24.17;;;8.30;99.90;;;;;;6275461;22;20077;-71
2021/12/14 04:30:06;;;;;;;42.70;25.15;;;8.20;99.90;;;;;;6272398;22;20019;-71
2021/12/14 04:32:32;;;;;;;38.10;23.23;;;8.20;99.90;;;;;;6273355;22;20082;-71
2021/12/14 04:34:58;;;;;;;38.67;23.65;;;8.30;99.90;;;;;;6272778;22;20094;-71
2021/12/14 04:37:24;;;;;;;35.97;21.33;;;8.30;99.90;;;;;;6301306;22;20405;-71
2021/12/14 04:40:00;;;;;;;41.08;22.73;;;8.30;99.90;;;;;;6273320;22;20011;-71
2021/12/14 04:53:53;;;;;;;41.40;22.55;;;8.30;99.90;;;;;;6302885;22;20023;-71
2021/12/14 04:56:31;;;;;;;39.78;24.27;;;8.30;99.90;;;;;;6302313;22;20262;-71
2021/12/14 04:59:03;;;;;;;39.70;23.52;;;8.20;99.90;;;;;;6303043;22;20371;-71
2021/12/14 05:01:32;;;;;;;45.47;24.85;;;8.30;99.90;;;;;;6302160;22;20039;-71
2021/12/14 05:04:00;;;;;;;40.47;26.10;;;8.20;99.90;;;;;;6302466;22;20023;-71
2021/12/14 05:06:43;;;;;;;39.42;22.92;;;8.20;99.90;;;;;;6303217;22;20463;-71
2021/12/14 05:09:27;;;;;;;40.22;24.67;;;8.20;99.90;;;;;;6276074;22;20418;-71
2021/12/14 05:12:04;;;;;;;36.45;20.70;;;8.30;99.90;;;;;;6302369;22;20015;-71
2021/12/14 05:14:30;;;;;;;41.97;25.17;;;8.30;99.90;;;;;;6302637;22;20011;-70
2021/12/14 05:17:00;;;;;;;40.13;23.23;;;8.20;99.90;;;;;;6301910;22;20691;-71
2021/12/14 05:19:27;;;;;;;39.50;23.33;;;8.20;99.90;;;;;;6302535;22;20043;-70
2021/12/14 05:22:00;;;;;;;39.25;24.08;;;8.20;99.90;;;;;;6302951;22;20011;-70
2021/12/14 05:24:27;;;;;;;47.88;27.50;;;8.20;99.90;;;;;;6301677;22;20098;-70
2021/12/14 05:27:02;;;;;;;46.47;25.95;;;8.20;99.90;;;;;;6301946;22;20011;-70
2021/12/14 05:29:29;;;;;;;38.42;23.23;;;8.10;99.90;;;;;;6302310;22;20008;-71
2021/12/14 05:31:56;;;;;;;43.58;26.45;;;8.20;99.90;;;;;;6300823;22;20019;-70
2021/12/14 05:34:23;;;;;;;46.70;26.13;;;8.10;99.90;;;;;;6303092;22;20026;-70
2021/12/14 05:36:50;;;;;;;54.42;28.80;;;8.10;99.90;;;;;;6301105;22;20023;-70
2021/12/14 05:44:16;;;;;;;56.10;31.27;;;8.10;99.90;;;;;;6299917;22;20023;-70
2021/12/14 05:46:49;;;;;;;48.88;25.10;;;8.00;99.90;;;;;;6274407;22;20022;-69
2021/12/14 05:49:21;;;;;;;46.92;26.42;;;8.10;99.90;;;;;;6273503;22;20391;-70
2021/12/14 05:51:49;;;;;;;53.67;30.27;;;8.00;99.90;;;;;;6274000;22;20691;-70
2021/12/14 05:54:29;;;;;;;54.63;30.95;;;8.00;99.90;;;;;;6275735;22;20069;-70
2021/12/14 05:56:58;;;;;;;63.80;32.33;;;8.00;99.90;;;;;;6273880;22;20050;-70
2021/12/14 05:59:30;;;;;;;46.63;25.95;;;8.00;99.90;;;;;;6273018;22;20422;-71
2021/12/14 06:01:56;;;;;;;57.95;31.73;;;8.00;99.90;;;;;;6272379;22;20042;-71
2021/12/14 06:04:26;;;;;;;58.40;32.20;;;8.00;99.90;;;;;;6297624;22;20133;-71
2021/12/14 06:06:55;;;;;;;54.70;28.63;;;8.00;99.90;;;;;;6299373;22;20019;-71
2021/12/14 06:09:30;;;;;;;63.03;32.78;;;8.00;99.90;;;;;;6302802;22;20007;-70
2021/12/14 06:12:15;;;;;;;62.28;32.75;;;8.00;99.90;;;;;;6308870;22;20015;-71
2021/12/14 06:14:50;;;;;;;58.05;29.67;;;8.00;99.90;;;;;;6296585;22;20015;-71
2021/12/14 06:17:19;;;;;;;69.95;33.58;;;8.00;99.90;;;;;;6268542;22;20030;-70
2021/12/14 06:19:52;;;;;;;79.18;38.13;;;8.00;99.90;;;;;;6298901;22;20027;-72
2021/12/14 06:22:20;;;;;;;53.10;27.85;;;8.00;99.90;;;;;;6271726;22;20019;-72
2021/12/14 06:24:49;;;;;;;64.05;33.50;;;8.00;99.90;;;;;;6302986;22;20080;-71
2021/12/14 06:27:18;;;;;;;66.10;34.47;;;8.00;99.90;;;;;;6300284;22;20056;-71
2021/12/14 06:29:48;;;;;;;77.55;35.58;;;8.00;99.90;;;;;;6299734;22;20377;-71
2021/12/14 06:32:18;;;;;;;65.22;34.28;;;8.00;99.90;;;;;;6298884;22;20022;-72
2021/12/14 06:34:49;;;;;;;58.95;29.50;;;8.00;99.90;;;;;;6302321;22;20042;-72
2021/12/14 06:37:30;;;;;;;64.30;32.45;;;8.00;99.90;;;;;;6303326;22;20015;-71
2021/12/14 06:40:15;;;;;;;47.45;24.15;;;8.00;99.90;;;;;;6275569;22;20019;-72
2021/12/14 06:42:43;;;;;;;72.18;35.72;;;8.00;99.90;;;;;;6302632;22;20180;-71
2021/12/14 06:45:12;;;;;;;75.20;35.90;;;8.00;99.90;;;;;;6301308;22;20011;-71
2021/12/14 06:47:40;;;;;;;67.00;33.75;;;8.00;99.90;;;;;;6300638;22;20020;-71
2021/12/14 06:50:11;;;;;;;67.00;31.42;;;8.00;99.90;;;;;;6301625;22;20027;-71
2021/12/14 06:52:37;;;;;;;63.35;32.53;;;8.00;99.90;;;;;;6299843;22;20026;-71
2021/12/14 06:55:05;;;;;;;61.00;32.67;;;8.00;99.90;;;;;;6299302;22;20015;-69
2021/12/14 06:57:32;;;;;;;76.10;37.25;;;8.00;99.90;;;;;;6301203;22;20458;-71
2021/12/14 06:59:59;;;;;;;64.95;33.08;;;8.00;99.90;;;;;;6301798;22;20031;-71
2021/12/14 07:02:26;;;;;;;68.68;33.67;;;8.00;99.90;;;;;;6301573;22;20037;-71
2021/12/14 07:04:52;;;;;;;65.13;31.90;;;8.00;99.90;;;;;;6302259;22;20046;-71
2021/12/14 07:07:23;;;;;;;68.53;32.40;;;8.00;99.90;;;;;;6301309;22;20011;-71
2021/12/14 07:09:56;;;;;;;77.70;36.42;;;8.00;99.90;;;;;;6302002;22;20042;-72
2021/12/14 07:12:27;;;;;;;;;;;8.00;99.90;;;;;;6302006;22;20015;-72
2021/12/14 07:14:53;;;;;;;62.33;32.30;;;8.00;99.90;;;;;;6302711;22;19973;-72
2021/12/14 07:17:27;;;;;;;63.33;30.75;;;8.00;99.90;;;;;;6301999;22;20506;-71
2021/12/14 07:20:21;;;;;;;74.72;34.72;;;8.10;99.90;;;;;;6273897;22;20019;-69
2021/12/14 07:22:50;;;;;;;82.38;39.95;;;8.00;99.90;;;;;;6274689;22;20023;-72
2021/12/14 07:25:26;;;;;;;73.43;38.42;;;8.10;99.90;;;;;;6273596;22;20011;-72
2021/12/14 07:28:13;;;;;;;89.32;41.13;;;8.10;99.90;;;;;;6272785;22;20459;-72
2021/12/14 07:30:43;;;;;;;76.13;37.45;;;8.00;99.90;;;;;;6273299;22;20518;-72
2021/12/14 07:33:21;;;;;;;97.65;50.28;;;8.10;99.90;;;;;;6270115;22;20023;-72
2021/12/14 07:36:06;;;;;;;95.93;43.78;;;8.10;99.90;;;;;;6274340;22;20344;-72
2021/12/14 07:38:55;;;;;;;79.75;37.08;;;8.10;99.90;;;;;;6274222;22;20015;-71
2021/12/14 07:41:51;;;;;;;71.38;34.65;;;8.10;99.90;;;;;;6301659;22;20015;-71
2021/12/14 07:44:24;;;;;;;77.95;35.45;;;8.10;99.90;;;;;;6270598;22;20446;-71
2021/12/14 07:46:55;;;;;;;76.10;35.75;;;8.10;99.90;;;;;;6300578;22;20016;-71
2021/12/14 07:49:28;;;;;;;82.97;37.35;;;8.10;99.90;;;;;;6298839;22;20020;-71
2021/12/14 07:52:04;;;;;;;94.28;39.38;;;8.10;99.90;;;;;;6274333;22;20443;-72
2021/12/14 07:54:34;;;;;;;82.82;36.58;;;8.10;99.90;;;;;;6301734;22;20098;-71
2021/12/14 07:57:06;;;;;;;68.43;32.25;;;8.10;99.90;;;;;;6273730;22;20023;-71
2021/12/14 07:59:58;;;;;;;64.43;30.20;;;8.20;99.90;;;;;;6274294;22;20082;-71
2021/12/14 08:02:34;;;;;;;85.00;37.95;;;8.20;99.90;;;;;;6271838;22;20047;-71
2021/12/14 08:05:30;;;;;;;82.57;36.58;;;8.20;99.90;;;;;;6274397;22;20049;-71
2021/12/14 08:08:21;;;;;;;74.47;32.80;;;8.20;99.90;;;;;;6273365;22;20011;-72
2021/12/14 08:11:08;;;;;;;77.57;33.92;;;8.20;99.90;;;;;;6249333;22;20030;-71
2021/12/14 08:13:44;;;;;;;74.97;33.80;;;8.20;99.90;;;;;;6272823;22;20072;-72
2021/12/14 08:16:10;;;;;;;76.07;35.25;;;8.20;99.90;;;;;;6272225;22;20459;-71
2021/12/14 08:18:37;;;;;;;72.78;33.05;;;8.30;99.90;;;;;;6297838;22;20022;-71
2021/12/14 08:21:07;;;;;;;80.45;34.83;;;8.30;99.90;;;;;;6272840;22;20024;-71
2021/12/14 08:23:39;;;;;;;83.32;37.13;;;8.30;99.90;;;;;;6273036;22;20017;-71
2021/12/14 08:26:20;;;;;;;79.32;33.45;;;8.30;99.90;;;;;;6273586;22;20034;-70
2021/12/14 08:29:04;;;;;;;76.63;33.80;;;8.30;99.90;;;;;;6300498;22;20356;-71
2021/12/14 08:31:34;;;;;;;76.43;32.08;;;8.30;99.90;;;;;;6300972;22;20082;-72
2021/12/14 08:34:12;;;;;;;82.90;35.60;;;8.40;99.90;;;;;;6270381;22;20018;-71
2021/12/14 08:36:47;;;;;;;87.00;35.15;;;8.40;99.90;;;;;;6302922;22;20015;-72
2021/12/14 08:39:20;;;;;;;92.10;35.97;;;8.40;99.90;;;;;;6272488;22;20196;-72
2021/12/14 08:41:55;;;;;;;78.82;34.30;;;8.40;99.90;;;;;;6273289;22;20023;-71
2021/12/14 08:44:35;;;;;;;95.10;37.17;;;8.40;99.90;;;;;;6271613;22;20016;-71
2021/12/14 08:47:04;;;;;;;73.72;30.60;;;8.40;99.90;;;;;;6272147;22;20023;-71
2021/12/14 08:49:30;;;;;;;98.68;39.15;;;8.40;99.90;;;;;;6272135;22;20117;-72
2021/12/14 08:51:56;;;;;;;97.20;36.53;;;8.30;99.90;;;;;;6271644;22;20197;-72
2021/12/14 08:54:27;;;;;;;100.32;37.78;;;8.30;99.90;;;;;;6299790;22;20376;-71
2021/12/14 08:57:13;;;;;;;103.30;40.00;;;8.40;99.90;;;;;;6299145;22;20316;-72
2021/12/14 08:59:43;;;;;;;98.90;37.10;;;8.40;99.90;;;;;;6300108;22;20023;-71
2021/12/14 09:02:12;;;;;;;97.07;37.40;;;8.30;99.90;;;;;;6301398;22;20030;-71
2021/12/14 09:04:53;;;;;;;100.97;38.00;;;8.30;99.90;;;;;;6301860;22;20077;-71
2021/12/14 09:07:24;;;;;;;91.35;36.80;;;8.30;99.90;;;;;;6302152;22;20200;-71
2021/12/14 09:09:51;;;;;;;97.22;38.03;;;8.40;99.90;;;;;;6302916;22;20085;-71
2021/12/14 09:12:27;;;;;;;90.20;34.47;;;8.30;99.90;;;;;;6302863;22;20054;-71
2021/12/14 09:14:59;;;;;;;74.35;31.13;;;8.30;99.90;;;;;;6302416;22;20015;-71
2021/12/14 09:17:26;;;;;;;100.57;37.03;;;8.30;99.90;;;;;;6301990;22;20011;-72
2021/12/14 09:19:58;;;;;;;111.15;40.08;;;8.30;99.90;;;;;;6301688;22;20023;-71
2021/12/14 09:22:45;;;;;;;104.05;39.80;;;8.30;99.90;;;;;;6302402;22;20077;-71
2021/12/14 09:25:18;;;;;;;109.57;41.78;;;8.40;99.90;;;;;;6302540;22;20062;-71
2021/12/14 09:27:45;;;;;;;100.55;39.28;;;8.30;99.90;;;;;;6302571;22;20332;-71
2021/12/14 09:30:14;;;;;;;111.78;39.72;;;8.40;99.90;;;;;;6303299;22;20109;-71
2021/12/14 09:32:41;;;;;;;126.65;40.90;;;8.40;99.90;;;;;;6301073;22;20015;-71
2021/12/14 09:35:13;;;;;;;99.65;34.83;;;8.40;99.90;;;;;;6301657;22;20019;-71
2021/12/14 09:37:39;;;;;;;121.78;39.65;;;8.40;99.90;;;;;;6303158;22;20033;-72
2021/12/14 09:40:11;;;;;;;72.85;30.45;;;8.40;99.90;;;;;;6301486;22;20082;-71
2021/12/14 09:42:39;;;;;;;104.07;37.10;;;8.40;99.90;;;;;;6300219;22;20188;-71
2021/12/14 09:45:13;;;;;;;90.85;33.17;;;8.40;99.90;;;;;;6274603;22;20069;-71
2021/12/14 09:47:39;;;;;;;114.35;39.78;;;8.40;99.90;;;;;;6301048;22;20027;-71
2021/12/14 09:50:12;;;;;;;107.68;37.38;;;8.40;99.90;;;;;;6302303;22;20557;-71
2021/12/14 09:52:40;;;;;;;106.63;37.65;;;8.40;99.90;;;;;;6303689;22;20015;-71
2021/12/14 09:55:11;;;;;;;106.25;40.08;;;8.40;99.90;;;;;;6302217;22;20375;-71
2021/12/14 09:57:45;;;;;;;106.22;38.53;;;8.50;99.90;;;;;;6302919;22;20019;-71
2021/12/14 10:00:16;;;;;;;;;;;8.50;99.90;;;;;;6304177;22;20015;-71
2021/12/14 10:02:46;;;;;;;77.45;30.83;;;8.50;99.90;;;;;;6301274;22;19915;-71
2021/12/14 10:05:20;;;;;;;92.32;34.38;;;8.50;99.90;;;;;;6275922;22;20019;-71
2021/12/14 10:07:48;;;;;;;93.05;34.80;;;8.50;99.90;;;;;;6274945;22;20019;-71
2021/12/14 10:10:17;;;;;;;84.30;33.50;;;8.50;99.90;;;;;;6300305;22;20533;-69
2021/12/14 10:12:51;;;;;;;81.45;32.20;;;8.50;99.90;;;;;;6273021;22;20447;-71
2021/12/14 10:15:16;;;;;;;55.75;24.60;;;8.50;99.90;;;;;;6297949;22;20441;-71
2021/12/14 10:17:43;;;;;;;84.05;32.38;;;8.50;99.90;;;;;;6270101;22;20023;-71
2021/12/14 10:20:15;;;;;;;57.10;24.63;;;8.50;99.90;;;;;;6270521;22;20413;-71
2021/12/14 10:22:41;;;;;;;78.45;30.35;;;8.50;99.90;;;;;;6270835;22;20026;-71
2021/12/14 10:25:14;;;;;;;82.07;31.25;;;8.50;99.90;;;;;;6272732;22;20343;-70
2021/12/14 10:27:40;;;;;;;81.63;30.73;;;8.50;99.90;;;;;;6273769;22;20451;-71
2021/12/14 10:30:22;;;;;;;71.43;29.15;;;8.60;99.90;;;;;;6274281;22;20027;-70
2021/12/14 10:32:48;;;;;;;62.72;27.30;;;8.60;99.90;;;;;;6269197;22;20011;-71
2021/12/14 10:35:23;;;;;;;68.18;26.80;;;8.60;99.90;;;;;;6271044;22;20019;-71
2021/12/14 10:37:56;;;;;;;72.75;28.38;;;8.60;99.90;;;;;;6271460;22;20387;-71
2021/12/14 10:43:16;;;;;;;72.95;26.85;;;8.60;99.90;;;;;;6268096;22;20019;-71
2021/12/14 10:45:50;;;;;;;56.80;23.20;;;8.60;99.90;;;;;;6269414;22;20019;-71
2021/12/14 10:48:18;;;;;;;75.18;29.23;;;8.60;99.90;;;;;;6268525;22;20070;-71
2021/12/14 10:50:45;;;;;;;80.28;32.38;;;8.60;99.90;;;;;;6298499;22;20045;-70
2021/12/14 10:53:12;;;;;;;73.50;27.35;;;8.70;99.90;;;;;;6271623;22;20050;-70
2021/12/14 10:55:45;;;;;;;53.17;21.95;;;8.70;99.90;;;;;;6301296;22;20385;-70
2021/12/14 10:58:13;;;;;;;53.97;23.02;;;8.70;99.90;;;;;;6273656;22;20303;-71
2021/12/14 11:00:48;;;;;;;58.10;25.15;;;8.70;99.90;;;;;;6298966;22;20434;-71
2021/12/14 11:03:19;;;;;;;66.53;25.27;;;8.70;99.90;;;;;;6296288;22;20109;-71
2021/12/14 11:06:29;;;;;;;54.88;22.02;;;8.70;99.90;;;;;;5007687;28;20153;-70
2021/12/14 11:11:38;;;;;;;44.53;20.80;;;8.80;99.90;;;;;;4994804;28;85528;-71
2021/12/14 11:14:10;;;;;;;59.00;24.00;;;8.80;99.90;;;;;;5052891;28;20035;-71
2021/12/14 11:19:56;;;;;;;48.72;21.92;;;8.80;99.90;;;;;;5052890;28;20507;-70
2021/12/14 11:22:21;;;;;;;63.17;24.52;;;8.80;99.90;;;;;;5056685;28;20435;-71
2021/12/14 11:24:52;;;;;;;49.65;20.80;;;8.80;99.90;;;;;;5055471;28;20058;-71
2021/12/14 11:27:33;;;;;;;65.20;23.88;;;8.90;99.90;;;;;;5041127;28;22345;-71
2021/12/14 11:30:20;;;;;;;44.03;19.55;;;8.90;99.90;;;;;;5037417;28;20168;-71
2021/12/14 11:33:01;;;;;;;47.63;20.70;;;8.90;99.90;;;;;;5036004;28;20064;-71
2021/12/14 11:35:29;;;;;;;49.28;21.27;;;8.90;99.90;;;;;;5039825;28;20138;-70
2021/12/14 11:37:57;;;;;;;41.00;18.13;;;8.90;99.90;;;;;;5036606;28;20052;-71
2021/12/14 11:40:26;;;;;;;43.40;19.60;;;8.90;99.90;;;;;;5039400;28;20052;-70
2021/12/14 11:42:53;;;;;;;35.72;16.38;;;8.90;99.90;;;;;;5038771;28;20431;-70
2021/12/14 11:45:22;;;;;;;35.55;17.98;;;8.90;99.90;;;;;;5039868;28;20128;-70
2021/12/14 11:47:58;;;;;;;39.92;18.00;;;9.00;99.90;;;;;;5027484;28;20468;-71
2021/12/14 11:50:41;;;;;;;39.60;16.88;;;9.00;99.90;;;;;;5035561;28;20049;-70
2021/12/14 11:53:06;;;;;;;;;;;9.00;99.90;;;;;;5034940;28;20049;-72
2021/12/14 11:55:43;;;;;;;32.67;14.77;;;9.00;99.90;;;;;;5040237;28;20387;-72
2021/12/14 11:58:32;;;;;;;38.80;16.08;;;9.00;99.90;;;;;;5035526;28;20052;-72
2021/12/14 12:01:20;;;;;;;37.28;16.38;;;9.10;99.90;;;;;;5037637;28;20045;-71
2021/12/14 12:04:11;;;;;;;37.15;15.77;;;9.10;99.90;;;;;;5039068;28;21073;-71
2021/12/14 12:09:31;;;;;;;29.93;12.80;;;9.10;99.90;;;;;;5038361;28;20037;-71
2021/12/14 12:12:03;;;;;;;30.48;13.68;;;9.10;99.90;;;;;;5040142;28;20288;-71
2021/12/14 12:14:39;;;;;;;30.52;13.20;;;9.20;99.90;;;;;;5039813;28;20052;-70
2021/12/14 12:17:22;;;;;;;24.85;11.13;;;9.20;99.90;;;;;;5033681;28;20137;-70
2021/12/14 12:20:02;;;;;;;20.63;10.13;;;9.30;99.90;;;;;;5031235;28;20086;-70
2021/12/14 12:22:57;;;;;;;23.83;11.35;;;9.30;99.90;;;;;;5029765;28;20132;-70
2021/12/14 12:25:46;;;;;;;20.73;9.95;;;9.30;99.90;;;;;;5030211;28;20060;-70
2021/12/14 12:28:32;;;;;;;17.27;8.65;;;9.30;99.90;;;;;;5022612;28;20053;-70
2021/12/14 12:31:11;;;;;;;26.40;10.98;;;9.40;99.90;;;;;;5021825;28;20359;-70
2021/12/14 12:33:43;;;;;;;24.33;11.48;;;9.40;99.90;;;;;;5022932;28;20275;-70
2021/12/14 12:36:11;;;;;;;28.48;11.25;;;9.40;99.90;;;;;;5019429;28;20056;-72
2021/12/14 12:38:45;;;;;;;21.90;9.95;;;9.50;99.90;;;;;;5025731;28;20053;-71
2021/12/14 12:41:29;;;;;;;27.52;11.90;;;9.50;99.90;;;;;;5025923;28;20037;-70
2021/12/14 12:44:22;;;;;;;34.55;13.55;;;9.50;99.90;;;;;;5021644;28;20054;-71
2021/12/14 12:46:58;;;;;;;34.85;12.88;;;9.50;99.90;;;;;;5024001;28;20046;-70
2021/12/14 12:49:30;;;;;;;29.85;12.57;;;9.50;99.90;;;;;;5024417;28;20048;-70
2021/12/14 12:52:19;;;;;;;28.77;12.07;;;9.50;99.90;;;;;;5021715;28;20239;-70
2021/12/14 12:55:05;;;;;;;29.10;13.18;;;9.50;99.90;;;;;;5029438;28;20057;-70
2021/12/14 12:57:34;;;;;;;32.78;13.57;;;9.60;99.90;;;;;;5024500;28;20103;-70
2021/12/14 13:00:09;;;;;;;27.60;11.75;;;9.60;99.90;;;;;;5023711;28;20079;-70
2021/12/14 13:02:50;;;;;;;23.52;10.70;;;9.60;99.90;;;;;;5027157;28;20049;-70
2021/12/14 13:05:22;;;;;;;33.88;12.75;;;9.50;99.90;;;;;;5027002;28;20053;-71
2021/12/14 13:07:57;;;;;;;37.65;13.40;;;9.60;99.90;;;;;;5021550;28;20076;-70
2021/12/14 13:10:41;;;;;;;24.67;10.15;;;9.60;99.90;;;;;;5027676;28;20112;-70
2021/12/14 13:13:18;;;;;;;24.55;11.20;;;9.60;99.90;;;;;;5025426;28;20139;-70
2021/12/14 13:16:16;;;;;;;29.35;12.57;;;9.60;99.90;;;;;;5023713;28;20143;-70
2021/12/14 13:18:53;;;;;;;24.05;11.02;;;9.60;99.90;;;;;;5012618;28;20068;-70
2021/12/14 13:21:57;;;;;;;29.00;11.75;;;9.60;99.90;;;;;;5027262;28;20115;-70
2021/12/14 13:24:23;;;;;;;;;;;9.50;99.90;;;;;;5014944;28;20059;-70
2021/12/14 13:27:07;;;;;;;21.20;10.07;;;9.50;99.90;;;;;;5023322;28;19924;-71
2021/12/14 13:29:47;;;;;;;25.63;10.40;;;9.50;99.90;;;;;;5019613;28;20572;-70
2021/12/14 13:32:34;;;;;;;18.27;9.98;;;9.50;99.90;;;;;;5020247;28;20045;-71
2021/12/14 13:35:12;;;;;;;18.80;8.50;;;9.50;99.90;;;;;;5021967;28;20587;-71
2021/12/14 13:37:41;;;;;;;25.83;11.23;;;9.50;99.90;;;;;;5022369;28;20057;-70
2021/12/14 13:40:12;;;;;;;24.77;9.75;;;9.50;99.90;;;;;;5027300;28;20072;-71
2021/12/14 13:43:01;;;;;;;23.83;10.13;;;9.50;99.90;;;;;;5021077;28;20048;-71